Time;durP1;ratioP1;P1;durP2;ratioP2;P2;SDS_P1;SDS_P2;PMS_P1;PMS_P2;Temp;Humidity;BMP_temperature;BMP_pressure;BME280_temperature;BME280_humidity;BME280_pressure;Samples;Min_cycle;Max_cycle;Signal;HPM_P1;HPM_P2
2022/01/29 00:00:08;;;;;;;2.67;1.70;;;;;;;14.67;59.60;102206.72;21003938;28;20062;-77
2022/01/29 00:10:13;;;;;;;3.03;2.00;;;;;;;14.63;60.12;102153.28;20985669;28;20072;-77
2022/01/29 00:20:15;;;;;;;3.55;1.80;;;;;;;14.67;59.72;102150.44;21002237;28;20389;-77
2022/01/29 00:30:18;;;;;;;2.53;2.00;;;;;;;14.63;59.41;102157.78;21001224;28;20032;-77
2022/01/29 00:40:21;;;;;;;5.43;2.38;;;;;;;14.24;59.69;102066.09;20983292;28;20106;-77
2022/01/29 00:50:23;;;;;;;3.03;1.90;;;;;;;14.25;60.08;102043.72;20982036;28;20041;-77
2022/01/29 01:00:26;;;;;;;3.88;2.22;;;;;;;14.56;59.52;102082.19;20983348;28;20044;-77
2022/01/29 01:10:28;;;;;;;3.70;2.13;;;;;;;14.24;60.13;102017.00;20997640;28;20102;-77
2022/01/29 01:20:30;;;;;;;3.17;2.05;;;;;;;14.39;60.27;102026.88;20997609;28;20090;-77
2022/01/29 01:30:32;;;;;;;4.05;2.03;;;;;;;14.33;59.85;102001.28;20996703;28;20044;-77
2022/01/29 01:40:35;;;;;;;2.10;1.60;;;;;;;14.52;59.93;101997.56;20996062;28;20508;-77
2022/01/29 01:50:37;;;;;;;4.15;2.30;;;;;;;14.54;60.14;102001.03;20994823;28;20128;-77
2022/01/29 02:00:39;;;;;;;3.28;1.98;;;;;;;14.59;60.13;101998.97;20976701;28;20056;-77
2022/01/29 02:10:45;;;;;;;2.88;2.08;;;;;;;14.26;59.84;101919.56;20975952;28;20052;-77
2022/01/29 02:20:46;;;;;;;;;;;;;;;14.67;60.16;101960.13;20992126;28;20084;-77
2022/01/29 02:31:03;;;;;;;2.78;1.95;;;;;;;14.48;60.16;101908.47;20974067;28;19924;-77
2022/01/29 02:41:06;;;;;;;3.17;1.92;;;;;;;14.60;60.20;101904.22;20991089;28;20048;-77
2022/01/29 02:51:08;;;;;;;2.92;1.95;;;;;;;14.30;60.08;101856.81;20990194;28;20490;-77
2022/01/29 03:01:10;;;;;;;2.58;1.85;;;;;;;14.41;60.20;101874.97;20972771;28;20147;-77
2022/01/29 03:11:13;;;;;;;2.35;1.85;;;;;;;14.23;60.12;101855.47;20955332;28;20135;-77
2022/01/29 03:21:14;;;;;;;3.08;2.13;;;;;;;14.57;60.22;101896.34;20988806;28;20465;-77
2022/01/29 03:31:16;;;;;;;2.92;1.85;;;;;;;14.47;60.49;101852.28;20970035;28;20055;-77
2022/01/29 03:41:18;;;;;;;4.53;2.10;;;;;;;14.57;60.29;101866.84;21182091;22;20053;-78
2022/01/29 03:51:20;;;;;;;3.42;1.95;;;;;;;14.54;60.50;101863.50;20970152;28;20045;-78
2022/01/29 04:01:22;;;;;;;2.45;1.85;;;;;;;14.63;60.62;101862.97;20987376;28;20458;-77
2022/01/29 04:11:25;;;;;;;2.78;1.60;;;;;;;14.60;60.39;101826.50;20989228;28;20048;-78
2022/01/29 04:21:27;;;;;;;1.85;1.45;;;;;;;14.48;60.51;101811.13;20968441;28;20064;-78
2022/01/29 04:31:37;;;;;;;2.70;1.70;;;;;;;14.47;60.56;101788.84;20952045;28;20052;-77
2022/01/29 04:41:41;;;;;;;3.40;1.75;;;;;;;14.60;60.47;101810.44;20962313;28;20052;-80
2022/01/29 04:51:42;;;;;;;3.10;1.92;;;;;;;14.44;60.50;101777.44;21000032;28;20044;-81
2022/01/29 05:01:44;;;;;;;2.80;1.70;;;;;;;14.66;60.71;101777.00;20965271;28;20044;-81
2022/01/29 05:11:49;;;;;;;2.78;1.50;;;;;;;14.30;60.65;101689.88;20963983;28;20493;-80
2022/01/29 05:32:12;;;;;;;1.75;1.15;;;;;;;14.64;60.57;101714.59;20996962;28;20036;-78
2022/01/29 05:42:14;;;;;;;1.75;1.30;;;;;;;14.73;60.15;101719.41;20996035;28;20501;-79
2022/01/29 05:52:16;;;;;;;1.67;1.13;;;;;;;14.96;60.44;101737.69;20977411;28;20048;-80
2022/01/29 06:02:17;;;;;;;3.25;1.30;;;;;;;14.94;60.19;101722.56;20977081;28;20565;-79
2022/01/29 06:12:20;;;;;;;2.75;1.38;;;;;;;14.88;60.12;101663.13;20975887;28;20052;-79
2022/01/29 06:22:22;;;;;;;2.00;1.27;;;;;;;15.39;60.29;101705.44;20992950;28;20049;-79
2022/01/29 06:32:24;;;;;;;2.60;1.30;;;;;;;15.40;60.07;101699.13;20974150;28;20040;-79
2022/01/29 06:42:26;;;;;;;2.78;1.33;;;;;;;15.29;60.14;101648.88;20956753;28;20060;-78
2022/01/29 06:52:28;;;;;;;2.15;1.20;;;;;;;15.49;59.92;101666.34;20956460;28;20041;-80
2022/01/29 07:02:30;;;;;;;1.15;0.90;;;;;;;15.50;59.87;101653.75;20971748;28;20044;-81
2022/01/29 07:12:32;;;;;;;1.70;1.38;;;;;;;15.47;60.08;101652.16;20989550;28;20469;-83
2022/01/29 07:22:34;;;;;;;2.22;1.20;;;;;;;15.54;60.13;101668.69;20955658;28;20066;-84
2022/01/29 07:32:42;;;;;;;1.02;0.70;;;;;;;15.47;59.78;101646.78;20970896;28;20074;-84
2022/01/29 07:42:43;;;;;;;1.38;1.10;;;;;;;15.39;60.04;101635.69;20970505;28;20163;-84
2022/01/29 07:52:45;;;;;;;2.85;1.10;;;;;;;15.15;59.93;101584.53;20953301;28;20040;-85
2022/01/29 08:02:47;;;;;;;1.60;1.08;;;;;;;15.57;59.96;101635.44;20969664;28;20057;-84
2022/01/29 08:12:49;;;;;;;1.90;0.82;;;;;;;15.14;59.91;101556.84;20955450;28;20137;-84
2022/01/29 08:22:51;;;;;;;1.95;1.20;;;;;;;15.25;60.11;101557.97;20951943;28;20055;-84
2022/01/29 08:32:53;;;;;;;0.73;0.60;;;;;;;15.61;60.08;101615.47;21001907;28;20053;-81
2022/01/29 08:42:55;;;;;;;1.48;0.85;;;;;;;14.98;60.22;101479.25;21001713;28;20045;-81
2022/01/29 08:52:57;;;;;;;3.10;0.90;;;;;;;15.26;60.05;101514.06;20982225;28;20036;-81
2022/01/29 09:02:59;;;;;;;0.82;0.68;;;;;;;14.89;60.17;101458.44;20981760;28;20052;-81
2022/01/29 09:13:02;;;;;;;2.42;0.68;;;;;;;15.49;60.11;101533.97;20998402;28;20044;-81
2022/01/29 09:23:04;;;;;;;1.95;1.00;;;;;;;15.65;60.32;101547.19;20979538;28;20044;-81
2022/01/29 09:33:06;;;;;;;1.20;0.60;;;;;;;15.65;60.46;101517.69;20979629;28;20068;-81
2022/01/29 09:43:10;;;;;;;1.27;0.63;;;;;;;15.35;60.62;101438.31;20996148;28;20048;-81
2022/01/29 09:53:11;;;;;;;1.63;0.70;;;;;;;15.57;60.56;101451.09;20977518;28;20049;-81
2022/01/29 10:03:15;;;;;;;1.13;0.65;;;;;;;15.37;60.51;101409.56;20976936;28;20822;-80
2022/01/29 10:13:37;;;;;;;1.45;0.60;;;;;;;15.69;60.36;101433.28;20976151;28;20045;-81
2022/01/29 10:23:40;;;;;;;0.80;0.63;;;;;;;15.71;60.12;101417.09;20958516;28;20089;-81
2022/01/29 10:33:42;;;;;;;0.82;0.70;;;;;;;15.72;60.71;101421.47;20973929;28;20052;-81
2022/01/29 10:44:09;;;;;;;0.60;0.50;;;;;;;15.73;60.56;101416.00;20990492;28;20060;-81
2022/01/29 10:54:14;;;;;;;;;;;;;;;15.75;60.58;101421.25;20974467;28;20094;-81
2022/01/29 11:04:16;;;;;;;2.63;0.88;;;;;;;15.75;60.78;101405.16;20972435;28;19926;-81
2022/01/29 11:14:20;;;;;;;0.93;0.52;;;;;;;15.49;60.51;101357.75;20971805;28;20546;-81
2022/01/29 11:24:24;;;;;;;0.85;0.60;;;;;;;15.49;60.64;101330.91;20971317;28;20048;-81
2022/01/29 11:34:26;;;;;;;1.50;0.50;;;;;;;15.43;60.27;101311.69;20988441;28;20071;-82
2022/01/29 11:44:28;;;;;;;1.10;0.50;;;;;;;15.64;60.91;101336.97;20988665;28;20509;-81
2022/01/29 11:55:01;;;;;;;1.35;0.60;;;;;;;15.71;60.91;101334.72;21004125;28;20048;-81
2022/01/29 12:05:06;;;;;;;1.05;0.77;;;;;;;15.72;60.94;101290.78;20986233;28;20051;-81
2022/01/29 12:15:11;;;;;;;1.20;0.60;;;;;;;15.79;61.15;101304.63;20969133;28;20040;-81
2022/01/29 12:25:18;;;;;;;1.27;0.50;;;;;;;15.32;61.06;101181.00;21002287;28;20494;-81
2022/01/29 12:35:20;;;;;;;0.93;0.52;;;;;;;15.76;60.84;101246.66;21001499;28;20051;-81
2022/01/29 12:45:23;;;;;;;1.85;0.60;;;;;;;15.59;60.89;101206.78;20983170;28;20059;-81
2022/01/29 12:55:30;;;;;;;2.38;0.63;;;;;;;15.23;60.96;101137.81;21000925;28;20067;-81
2022/01/29 13:05:39;;;;;;;0.98;0.60;;;;;;;15.70;61.16;101197.94;20980441;28;20052;-81
2022/01/29 13:15:41;;;;;;;0.52;0.40;;;;;;;15.72;61.00;101210.25;20980682;28;20131;-81
2022/01/29 13:25:43;;;;;;;0.80;0.40;;;;;;;15.76;61.16;101182.22;20998037;28;20063;-81
2022/01/29 13:35:48;;;;;;;0.70;0.40;;;;;;;15.73;61.36;101139.50;20996849;28;20040;-81
2022/01/29 13:45:51;;;;;;;1.60;0.50;;;;;;;15.52;61.34;101099.91;20978231;28;20132;-81
2022/01/29 13:56:10;;;;;;;1.02;0.43;;;;;;;15.47;61.16;101079.75;20995367;28;20044;-81
2022/01/29 14:06:40;;;;;;;0.77;0.50;;;;;;;15.74;61.30;101122.41;20960262;28;20048;-80
2022/01/29 14:16:45;;;;;;;1.45;0.57;;;;;;;15.71;61.32;101043.97;20976712;28;20055;-80
2022/01/29 14:26:47;;;;;;;1.30;0.57;;;;;;;14.88;61.57;100937.50;20975139;28;20505;-80
2022/01/29 14:36:54;;;;;;;2.42;0.70;;;;;;;15.63;61.26;101098.25;20974025;28;20053;-80
2022/01/29 14:46:58;;;;;;;1.48;0.50;;;;;;;15.92;61.60;101116.66;20957566;28;20123;-80
2022/01/29 14:57:02;;;;;;;1.38;0.60;;;;;;;15.74;61.74;101098.25;20990571;28;20040;-80
2022/01/29 15:07:04;;;;;;;1.15;0.57;;;;;;;15.90;61.34;101137.38;20956039;28;20058;-81
2022/01/29 15:17:07;;;;;;;1.38;0.65;;;;;;;15.84;61.68;101125.28;20989252;28;20551;-80
2022/01/29 15:27:09;;;;;;;1.55;0.70;;;;;;;15.58;61.78;101108.47;20972026;28;20106;-81
2022/01/29 15:37:12;;;;;;;2.15;0.93;;;;;;;15.52;61.77;101091.00;20988351;28;20063;-80
2022/01/29 15:47:13;;;;;;;0.55;0.45;;;;;;;15.95;61.98;101195.16;20953948;28;20047;-81
2022/01/29 15:57:16;;;;;;;3.47;0.90;;;;;;;15.88;62.25;101193.91;20987675;28;20132;-81
2022/01/29 16:07:19;;;;;;;1.13;0.60;;;;;;;15.90;62.05;101210.75;20953549;28;20053;-81
2022/01/29 16:17:21;;;;;;;1.73;0.73;;;;;;;15.97;62.17;101243.38;20969140;28;20040;-81
2022/01/29 16:27:23;;;;;;;1.58;0.70;;;;;;;15.64;61.84;101221.56;20968766;28;20049;-80
2022/01/29 16:37:25;;;;;;;3.75;1.17;;;;;;;15.90;62.01;101261.75;20993921;28;20136;-81
2022/01/29 16:47:27;;;;;;;2.08;0.90;;;;;;;15.96;61.78;101281.94;21000572;28;20390;-81
2022/01/29 16:57:29;;;;;;;5.45;1.40;;;;;;;15.87;61.69;101321.03;21000402;28;20051;-81
2022/01/29 17:07:31;;;;;;;4.20;1.25;;;;;;;15.85;61.45;101340.91;20999334;28;20110;-81
2022/01/29 17:17:34;;;;;;;6.20;1.33;;;;;;;15.99;61.74;101381.06;20998523;28;20098;-81
2022/01/29 17:27:36;;;;;;;3.10;1.00;;;;;;;15.68;61.46;101351.03;20997578;28;20037;-80
2022/01/29 17:37:53;;;;;;;3.10;1.10;;;;;;;15.95;61.51;101411.81;20979059;28;20056;-81
2022/01/29 17:47:56;;;;;;;4.03;1.35;;;;;;;15.93;60.81;101429.88;20978182;28;20513;-81
2022/01/29 17:57:57;;;;;;;5.38;1.30;;;;;;;15.73;61.02;101424.03;20977520;28;20044;-81
2022/01/29 18:07:59;;;;;;;3.58;1.50;;;;;;;15.96;60.81;101469.91;20994655;28;20075;-82
2022/01/29 18:18:07;;;;;;;4.63;1.45;;;;;;;15.76;60.76;101450.66;20976013;28;20040;-82
2022/01/29 18:28:15;;;;;;;4.78;1.20;;;;;;;16.07;60.84;101512.09;20975770;28;20044;-81
2022/01/29 18:38:18;;;;;;;2.97;1.38;;;;;;;16.03;60.62;101498.06;20958638;28;20131;-82
2022/01/29 18:48:21;;;;;;;6.50;1.58;;;;;;;16.09;60.20;101499.41;20974045;28;20492;-82
2022/01/29 18:58:23;;;;;;;4.03;1.45;;;;;;;15.79;60.26;101474.59;20972267;28;20050;-81
2022/01/29 19:08:25;;;;;;;4.28;1.42;;;;;;;15.76;60.11;101480.19;20971853;28;20044;-79
2022/01/29 19:18:30;;;;;;;3.95;1.40;;;;;;;15.88;60.04;101512.53;20971970;28;20521;-80
2022/01/29 19:28:33;;;;;;;5.45;1.40;;;;;;;16.17;60.27;101580.34;20971007;28;20180;-80
2022/01/29 19:38:35;;;;;;;5.00;1.65;;;;;;;16.11;60.13;101579.91;20971924;28;20482;-81
2022/01/29 19:48:37;;;;;;;6.45;1.60;;;;;;;16.04;60.23;101592.91;20970277;28;20051;-81
2022/01/29 19:58:41;;;;;;;4.82;1.80;;;;;;;16.00;60.16;101650.47;20987681;28;20577;-80
2022/01/29 20:08:43;;;;;;;5.95;2.08;;;;;;;15.94;60.05;101700.13;20991237;28;20139;-80
2022/01/29 20:18:45;;;;;;;4.93;1.30;;;;;;;15.77;60.09;101671.69;21003620;28;20057;-81
2022/01/29 20:28:47;;;;;;;5.80;1.50;;;;;;;15.66;60.13;101675.06;20984442;28;20040;-81
2022/01/29 20:38:49;;;;;;;5.63;1.38;;;;;;;15.37;60.43;101645.66;21001275;28;20087;-81
2022/01/29 20:48:51;;;;;;;4.68;1.58;;;;;;;15.51;60.45;101682.31;20983312;28;20067;-80
2022/01/29 20:58:53;;;;;;;3.63;1.10;;;;;;;15.28;60.76;101651.63;20999716;28;20062;-81
2022/01/29 21:09:15;;;;;;;5.03;1.42;;;;;;;15.49;60.87;101701.22;20985353;28;20611;-81
2022/01/29 21:19:17;;;;;;;5.95;1.65;;;;;;;15.48;60.96;101718.28;20979974;28;20063;-81
2022/01/29 21:29:20;;;;;;;5.18;1.60;;;;;;;15.27;60.70;101717.88;20963338;28;20081;-80
2022/01/29 21:39:22;;;;;;;4.15;1.20;;;;;;;14.45;61.01;101597.88;20996780;28;20048;-80
2022/01/29 21:49:24;;;;;;;3.78;1.35;;;;;;;15.25;60.93;101740.38;20996016;28;20048;-81
2022/01/29 21:59:28;;;;;;;3.55;1.35;;;;;;;15.11;60.78;101719.78;20995239;28;20083;-81
2022/01/29 22:09:30;;;;;;;4.75;1.50;;;;;;;15.21;60.61;101763.84;20976985;28;20040;-81
2022/01/29 22:19:32;;;;;;;7.03;1.52;;;;;;;15.14;60.60;101749.97;20993735;28;20072;-80
2022/01/29 22:29:40;;;;;;;5.18;1.35;;;;;;;14.88;60.50;101731.00;20992930;28;20490;-80
2022/01/29 22:39:43;;;;;;;6.55;1.40;;;;;;;15.05;60.58;101786.25;20991712;28;20060;-80
2022/01/29 22:49:45;;;;;;;4.15;1.33;;;;;;;14.74;60.84;101733.69;20973714;28;20044;-81
2022/01/29 22:59:47;;;;;;;5.00;2.22;;;;;;;15.04;60.39;101811.34;20991699;28;20047;-80
2022/01/29 23:30:10;;;;;;;5.70;1.65;;;;;;;14.81;60.42;101799.38;20972381;28;20052;-80
2022/01/29 23:40:19;;;;;;;5.15;1.42;;;;;;;14.57;60.33;101767.69;20953920;28;20041;-80
2022/01/29 23:50:21;;;;;;;4.88;1.67;;;;;;;14.61;60.47;101790.72;20987978;28;20529;-79
